Wilmington International Airport
KILM : now visible

Airfield :











YOU CAN JOIN US ON...

 
LOGIN :

Register | Disclaimer

   EN    FR    IT 

 









Legend :    VFR   Marginal VFR   IFR   Intensive IFR   Very Intensive IFR
Visi :
Ceiling :
>= 8 km
>= 3000ft
5 to 8 km
1000 to 3000 ft
1500m to 5 km
500 to 1000 ft
800 to 1500m
200 to 500 ft
< 800m
< 200 ft
Symbols :   Thunderstorms  Fog  Heavy snow  Heavy precipitations  Wind > 20 kt






- Airport Elevation : 32 ft
- IATA code : ILM


KILM - Wilmington International

CURRENT METAR :
  • 190202Z 27004KT 10SM OVC016 09/08 A2982 RMK AO2 T00940078

EXPIRED METARs :
  • 190145Z 28003KT 10SM SCT006 OVC014 09/08 A2982 RMK AO2 T00940083
  • 190053Z 28003KT 7SM OVC006 09/08 A2981 RMK AO2 SLP094 T00940083
  • 182353Z 00000KT 10SM OVC009 09/08 A2980 RMK AO2 SLP092 60000 T00940078 10100 20094 51014

TAF KILM
Valid from the 19 at 00:00 until the 20 at 00:00 UTC


182333Z 1900/1924 33003KT P6SM OVC010
FM190300 33003KT 4SM BR OVC007
FM191100 00000KT 4SM BR OVC012
FM191300 35003KT P6SM SCT025 BKN200
FM192000 34003KT P6SM SCT035



MET'MAP, your aeronautical weather chart ! - Copyright ORBIFLY December 2007 - Disclaimer

ORBIFLY MET'MAP TEAM :

Programming & Development : Alexandra Zaïnal
Concept & Development : Baudouin d'Aumeries
Co-Development & Prog : Marc-Olivier Méhu
Technical & hardware support : Manuel Goepfert

Contact : metmap@orbifly.com




SOURCES & CREDITS :

   NOAA       Earth
Advisory